sensor_id;sensor_type;location;lat;lon;timestamp;P1;durP1;ratioP1;P2;durP2;ratioP2
68744;SDS011;73143;45.456;11.064;2024-02-04T00:00:16;75.90;;;44.40;;
68744;SDS011;73143;45.456;11.064;2024-02-04T00:02:55;76.90;;;44.40;;
68744;SDS011;73143;45.456;11.064;2024-02-04T00:05:32;79.40;;;46.60;;
68744;SDS011;73143;45.456;11.064;2024-02-04T00:08:10;84.20;;;48.40;;
68744;SDS011;73143;45.456;11.064;2024-02-04T00:10:48;84.30;;;48.90;;
68744;SDS011;73143;45.456;11.064;2024-02-04T00:13:25;76.40;;;46.20;;
68744;SDS011;73143;45.456;11.064;2024-02-04T00:16:02;77.60;;;45.60;;
68744;SDS011;73143;45.456;11.064;2024-02-04T00:18:41;78.70;;;45.60;;
68744;SDS011;73143;45.456;11.064;2024-02-04T00:21:17;77.50;;;44.60;;
68744;SDS011;73143;45.456;11.064;2024-02-04T00:23:53;79.40;;;44.50;;
68744;SDS011;73143;45.456;11.064;2024-02-04T00:26:30;78.40;;;44.70;;
68744;SDS011;73143;45.456;11.064;2024-02-04T00:29:07;75.00;;;42.40;;
68744;SDS011;73143;45.456;11.064;2024-02-04T00:31:43;75.80;;;43.00;;
68744;SDS011;73143;45.456;11.064;2024-02-04T00:34:20;70.50;;;42.90;;
68744;SDS011;73143;45.456;11.064;2024-02-04T00:36:57;78.90;;;44.40;;
68744;SDS011;73143;45.456;11.064;2024-02-04T00:39:33;76.20;;;44.90;;
68744;SDS011;73143;45.456;11.064;2024-02-04T00:42:10;78.70;;;46.00;;
68744;SDS011;73143;45.456;11.064;2024-02-04T00:44:47;80.00;;;46.60;;
68744;SDS011;73143;45.456;11.064;2024-02-04T00:47:23;73.10;;;45.00;;
68744;SDS011;73143;45.456;11.064;2024-02-04T00:50:00;68.40;;;41.90;;
68744;SDS011;73143;45.456;11.064;2024-02-04T00:52:38;76.10;;;43.10;;
68744;SDS011;73143;45.456;11.064;2024-02-04T00:55:15;72.00;;;42.90;;
68744;SDS011;73143;45.456;11.064;2024-02-04T00:57:52;71.00;;;43.90;;
68744;SDS011;73143;45.456;11.064;2024-02-04T01:00:30;73.70;;;44.30;;
68744;SDS011;73143;45.456;11.064;2024-02-04T01:03:08;75.70;;;44.60;;
68744;SDS011;73143;45.456;11.064;2024-02-04T01:05:46;73.40;;;42.90;;
68744;SDS011;73143;45.456;11.064;2024-02-04T01:08:23;79.30;;;45.30;;
68744;SDS011;73143;45.456;11.064;2024-02-04T01:11:00;75.70;;;46.50;;
68744;SDS011;73143;45.456;11.064;2024-02-04T01:13:37;78.60;;;45.20;;
68744;SDS011;73143;45.456;11.064;2024-02-04T01:16:14;76.60;;;45.30;;
68744;SDS011;73143;45.456;11.064;2024-02-04T01:18:51;77.20;;;46.80;;
68744;SDS011;73143;45.456;11.064;2024-02-04T01:21:28;77.00;;;44.50;;
68744;SDS011;73143;45.456;11.064;2024-02-04T01:24:05;77.60;;;45.20;;
68744;SDS011;73143;45.456;11.064;2024-02-04T01:26:42;76.50;;;45.20;;
68744;SDS011;73143;45.456;11.064;2024-02-04T01:29:18;71.90;;;42.90;;
68744;SDS011;73143;45.456;11.064;2024-02-04T01:31:54;74.00;;;43.80;;
68744;SDS011;73143;45.456;11.064;2024-02-04T01:34:31;77.40;;;44.50;;
68744;SDS011;73143;45.456;11.064;2024-02-04T01:37:10;79.60;;;46.30;;
68744;SDS011;73143;45.456;11.064;2024-02-04T01:39:48;80.50;;;46.60;;
68744;SDS011;73143;45.456;11.064;2024-02-04T01:42:25;82.80;;;46.70;;
68744;SDS011;73143;45.456;11.064;2024-02-04T01:45:02;81.60;;;45.20;;
68744;SDS011;73143;45.456;11.064;2024-02-04T01:47:39;81.70;;;46.10;;
68744;SDS011;73143;45.456;11.064;2024-02-04T01:50:16;76.00;;;44.30;;
68744;SDS011;73143;45.456;11.064;2024-02-04T01:52:54;78.10;;;46.30;;
68744;SDS011;73143;45.456;11.064;2024-02-04T01:55:34;83.60;;;47.00;;
68744;SDS011;73143;45.456;11.064;2024-02-04T01:58:12;83.60;;;49.30;;
68744;SDS011;73143;45.456;11.064;2024-02-04T02:00:50;79.20;;;47.10;;
68744;SDS011;73143;45.456;11.064;2024-02-04T02:03:30;80.90;;;48.00;;
68744;SDS011;73143;45.456;11.064;2024-02-04T02:06:08;78.60;;;43.80;;
68744;SDS011;73143;45.456;11.064;2024-02-04T02:08:45;73.60;;;43.30;;
68744;SDS011;73143;45.456;11.064;2024-02-04T02:11:27;75.20;;;43.90;;
68744;SDS011;73143;45.456;11.064;2024-02-04T02:14:16;73.90;;;42.70;;
68744;SDS011;73143;45.456;11.064;2024-02-04T02:17:00;73.50;;;44.00;;
68744;SDS011;73143;45.456;11.064;2024-02-04T02:19:49;74.30;;;44.20;;
68744;SDS011;73143;45.456;11.064;2024-02-04T02:22:36;78.40;;;45.00;;
68744;SDS011;73143;45.456;11.064;2024-02-04T02:25:21;75.20;;;42.50;;
68744;SDS011;73143;45.456;11.064;2024-02-04T02:27:59;75.20;;;42.20;;
68744;SDS011;73143;45.456;11.064;2024-02-04T02:30:35;74.60;;;43.60;;
68744;SDS011;73143;45.456;11.064;2024-02-04T02:33:11;77.10;;;43.90;;
68744;SDS011;73143;45.456;11.064;2024-02-04T02:35:53;76.60;;;46.10;;
68744;SDS011;73143;45.456;11.064;2024-02-04T02:38:37;80.00;;;46.70;;
68744;SDS011;73143;45.456;11.064;2024-02-04T02:41:22;71.60;;;43.30;;
68744;SDS011;73143;45.456;11.064;2024-02-04T02:44:02;72.00;;;42.40;;
68744;SDS011;73143;45.456;11.064;2024-02-04T02:46:38;77.40;;;43.90;;
68744;SDS011;73143;45.456;11.064;2024-02-04T02:49:16;79.20;;;44.90;;
68744;SDS011;73143;45.456;11.064;2024-02-04T02:51:53;74.40;;;43.60;;
68744;SDS011;73143;45.456;11.064;2024-02-04T02:54:30;81.70;;;46.60;;
68744;SDS011;73143;45.456;11.064;2024-02-04T02:57:07;83.20;;;46.10;;
68744;SDS011;73143;45.456;11.064;2024-02-04T02:59:48;78.30;;;46.20;;
68744;SDS011;73143;45.456;11.064;2024-02-04T03:02:25;69.90;;;41.20;;
68744;SDS011;73143;45.456;11.064;2024-02-04T03:05:01;73.70;;;41.80;;
68744;SDS011;73143;45.456;11.064;2024-02-04T03:07:41;65.40;;;39.20;;
68744;SDS011;73143;45.456;11.064;2024-02-04T03:10:18;72.50;;;41.10;;
68744;SDS011;73143;45.456;11.064;2024-02-04T03:12:54;72.50;;;41.70;;
68744;SDS011;73143;45.456;11.064;2024-02-04T03:15:31;74.70;;;44.20;;
68744;SDS011;73143;45.456;11.064;2024-02-04T03:18:07;65.50;;;39.90;;
68744;SDS011;73143;45.456;11.064;2024-02-04T03:20:48;82.10;;;47.40;;
68744;SDS011;73143;45.456;11.064;2024-02-04T03:23:24;78.50;;;45.40;;
68744;SDS011;73143;45.456;11.064;2024-02-04T03:26:02;83.30;;;47.50;;
68744;SDS011;73143;45.456;11.064;2024-02-04T03:28:39;84.10;;;47.00;;
68744;SDS011;73143;45.456;11.064;2024-02-04T03:31:21;75.70;;;45.10;;
68744;SDS011;73143;45.456;11.064;2024-02-04T03:33:58;81.40;;;45.80;;
68744;SDS011;73143;45.456;11.064;2024-02-04T03:36:36;78.40;;;45.40;;
68744;SDS011;73143;45.456;11.064;2024-02-04T03:39:14;76.90;;;45.10;;
68744;SDS011;73143;45.456;11.064;2024-02-04T03:41:50;75.30;;;44.60;;
68744;SDS011;73143;45.456;11.064;2024-02-04T03:44:27;79.50;;;44.70;;
68744;SDS011;73143;45.456;11.064;2024-02-04T03:47:03;76.00;;;45.20;;
68744;SDS011;73143;45.456;11.064;2024-02-04T03:49:41;79.00;;;46.20;;
68744;SDS011;73143;45.456;11.064;2024-02-04T03:52:23;82.00;;;46.00;;
68744;SDS011;73143;45.456;11.064;2024-02-04T03:55:00;77.00;;;46.90;;
68744;SDS011;73143;45.456;11.064;2024-02-04T03:57:37;79.80;;;46.90;;
68744;SDS011;73143;45.456;11.064;2024-02-04T04:00:19;78.20;;;45.00;;
68744;SDS011;73143;45.456;11.064;2024-02-04T04:02:57;80.20;;;45.20;;
68744;SDS011;73143;45.456;11.064;2024-02-04T04:05:33;76.30;;;45.30;;
68744;SDS011;73143;45.456;11.064;2024-02-04T04:08:10;76.60;;;45.30;;
68744;SDS011;73143;45.456;11.064;2024-02-04T04:10:46;78.70;;;45.40;;
68744;SDS011;73143;45.456;11.064;2024-02-04T04:13:23;77.20;;;44.50;;
68744;SDS011;73143;45.456;11.064;2024-02-04T04:16:00;74.40;;;43.50;;
68744;SDS011;73143;45.456;11.064;2024-02-04T04:18:36;75.30;;;44.30;;
68744;SDS011;73143;45.456;11.064;2024-02-04T04:21:14;72.90;;;42.20;;
68744;SDS011;73143;45.456;11.064;2024-02-04T04:23:51;73.60;;;42.60;;
68744;SDS011;73143;45.456;11.064;2024-02-04T04:26:28;71.00;;;43.20;;
68744;SDS011;73143;45.456;11.064;2024-02-04T04:29:05;71.10;;;41.20;;
68744;SDS011;73143;45.456;11.064;2024-02-04T04:31:41;78.70;;;44.80;;
68744;SDS011;73143;45.456;11.064;2024-02-04T04:34:18;77.80;;;44.30;;
68744;SDS011;73143;45.456;11.064;2024-02-04T04:36:55;73.10;;;41.50;;
68744;SDS011;73143;45.456;11.064;2024-02-04T04:39:33;75.70;;;42.00;;
68744;SDS011;73143;45.456;11.064;2024-02-04T04:42:09;76.60;;;43.10;;
68744;SDS011;73143;45.456;11.064;2024-02-04T04:44:46;79.30;;;45.00;;
68744;SDS011;73143;45.456;11.064;2024-02-04T04:47:22;77.60;;;45.20;;
68744;SDS011;73143;45.456;11.064;2024-02-04T04:50:00;69.10;;;41.50;;
68744;SDS011;73143;45.456;11.064;2024-02-04T04:52:38;73.00;;;42.30;;
68744;SDS011;73143;45.456;11.064;2024-02-04T04:55:16;70.30;;;41.90;;
68744;SDS011;73143;45.456;11.064;2024-02-04T04:57:53;72.60;;;39.80;;
68744;SDS011;73143;45.456;11.064;2024-02-04T05:00:32;73.70;;;42.80;;
68744;SDS011;73143;45.456;11.064;2024-02-04T05:03:12;72.90;;;43.50;;
68744;SDS011;73143;45.456;11.064;2024-02-04T05:05:49;72.10;;;41.40;;
68744;SDS011;73143;45.456;11.064;2024-02-04T05:08:28;66.70;;;40.00;;
68744;SDS011;73143;45.456;11.064;2024-02-04T05:11:04;72.20;;;42.00;;
68744;SDS011;73143;45.456;11.064;2024-02-04T05:13:42;75.10;;;41.80;;
68744;SDS011;73143;45.456;11.064;2024-02-04T05:16:19;74.60;;;42.30;;
68744;SDS011;73143;45.456;11.064;2024-02-04T05:18:55;71.40;;;42.20;;
68744;SDS011;73143;45.456;11.064;2024-02-04T05:21:33;75.40;;;41.70;;
68744;SDS011;73143;45.456;11.064;2024-02-04T05:24:13;76.80;;;43.40;;
68744;SDS011;73143;45.456;11.064;2024-02-04T05:26:51;75.80;;;43.40;;
68744;SDS011;73143;45.456;11.064;2024-02-04T05:29:27;73.70;;;42.10;;
68744;SDS011;73143;45.456;11.064;2024-02-04T05:32:04;83.60;;;43.90;;
68744;SDS011;73143;45.456;11.064;2024-02-04T05:34:42;79.30;;;44.90;;
68744;SDS011;73143;45.456;11.064;2024-02-04T05:37:18;80.80;;;45.10;;
68744;SDS011;73143;45.456;11.064;2024-02-04T05:39:55;75.70;;;43.50;;
68744;SDS011;73143;45.456;11.064;2024-02-04T05:42:33;78.70;;;42.70;;
68744;SDS011;73143;45.456;11.064;2024-02-04T05:45:13;74.80;;;42.10;;
68744;SDS011;73143;45.456;11.064;2024-02-04T05:47:50;79.60;;;44.60;;
68744;SDS011;73143;45.456;11.064;2024-02-04T05:50:27;78.10;;;44.00;;
68744;SDS011;73143;45.456;11.064;2024-02-04T05:53:05;75.00;;;44.50;;
68744;SDS011;73143;45.456;11.064;2024-02-04T05:55:42;79.50;;;44.70;;
68744;SDS011;73143;45.456;11.064;2024-02-04T05:58:19;83.10;;;44.30;;
68744;SDS011;73143;45.456;11.064;2024-02-04T06:00:56;79.80;;;45.10;;
68744;SDS011;73143;45.456;11.064;2024-02-04T06:03:32;82.70;;;44.30;;
68744;SDS011;73143;45.456;11.064;2024-02-04T06:06:10;79.50;;;45.20;;
68744;SDS011;73143;45.456;11.064;2024-02-04T06:08:52;76.10;;;43.20;;
68744;SDS011;73143;45.456;11.064;2024-02-04T06:11:29;80.60;;;45.20;;
68744;SDS011;73143;45.456;11.064;2024-02-04T06:14:06;78.40;;;43.20;;
68744;SDS011;73143;45.456;11.064;2024-02-04T06:16:45;76.80;;;42.50;;
68744;SDS011;73143;45.456;11.064;2024-02-04T06:19:22;84.70;;;44.60;;
68744;SDS011;73143;45.456;11.064;2024-02-04T06:21:59;89.20;;;45.60;;
68744;SDS011;73143;45.456;11.064;2024-02-04T06:24:36;78.40;;;43.30;;
68744;SDS011;73143;45.456;11.064;2024-02-04T06:27:14;78.70;;;42.10;;
68744;SDS011;73143;45.456;11.064;2024-02-04T06:29:51;74.20;;;41.50;;
68744;SDS011;73143;45.456;11.064;2024-02-04T06:32:28;84.10;;;43.00;;
68744;SDS011;73143;45.456;11.064;2024-02-04T06:35:09;74.10;;;42.30;;
68744;SDS011;73143;45.456;11.064;2024-02-04T06:37:47;78.70;;;39.70;;
68744;SDS011;73143;45.456;11.064;2024-02-04T06:40:23;82.80;;;44.70;;
68744;SDS011;73143;45.456;11.064;2024-02-04T06:43:00;72.40;;;41.80;;
68744;SDS011;73143;45.456;11.064;2024-02-04T06:45:36;76.40;;;42.90;;
68744;SDS011;73143;45.456;11.064;2024-02-04T06:48:18;78.40;;;43.50;;
68744;SDS011;73143;45.456;11.064;2024-02-04T06:50:55;77.80;;;42.50;;
68744;SDS011;73143;45.456;11.064;2024-02-04T06:53:32;75.20;;;42.90;;
68744;SDS011;73143;45.456;11.064;2024-02-04T06:56:10;82.80;;;44.00;;
68744;SDS011;73143;45.456;11.064;2024-02-04T06:58:46;80.30;;;43.80;;
68744;SDS011;73143;45.456;11.064;2024-02-04T07:01:24;71.20;;;40.40;;
68744;SDS011;73143;45.456;11.064;2024-02-04T07:04:01;67.30;;;39.40;;
68744;SDS011;73143;45.456;11.064;2024-02-04T07:06:38;80.10;;;42.20;;
68744;SDS011;73143;45.456;11.064;2024-02-04T07:09:16;75.00;;;42.90;;
68744;SDS011;73143;45.456;11.064;2024-02-04T07:11:53;82.40;;;44.40;;
68744;SDS011;73143;45.456;11.064;2024-02-04T07:14:30;75.50;;;42.70;;
68744;SDS011;73143;45.456;11.064;2024-02-04T07:17:07;73.50;;;42.90;;
68744;SDS011;73143;45.456;11.064;2024-02-04T07:19:44;77.20;;;42.40;;
68744;SDS011;73143;45.456;11.064;2024-02-04T07:22:21;79.20;;;44.00;;
68744;SDS011;73143;45.456;11.064;2024-02-04T07:24:58;71.00;;;42.60;;
68744;SDS011;73143;45.456;11.064;2024-02-04T07:27:36;77.10;;;41.80;;
68744;SDS011;73143;45.456;11.064;2024-02-04T07:30:14;79.20;;;42.30;;
68744;SDS011;73143;45.456;11.064;2024-02-04T07:32:52;78.60;;;42.10;;
68744;SDS011;73143;45.456;11.064;2024-02-04T07:35:29;78.50;;;44.10;;
68744;SDS011;73143;45.456;11.064;2024-02-04T07:38:06;79.50;;;42.40;;
68744;SDS011;73143;45.456;11.064;2024-02-04T07:40:43;78.70;;;41.40;;
68744;SDS011;73143;45.456;11.064;2024-02-04T07:43:20;71.10;;;42.20;;
68744;SDS011;73143;45.456;11.064;2024-02-04T07:45:57;71.70;;;42.30;;
68744;SDS011;73143;45.456;11.064;2024-02-04T07:48:36;75.40;;;43.90;;
68744;SDS011;73143;45.456;11.064;2024-02-04T07:51:12;71.40;;;43.80;;
68744;SDS011;73143;45.456;11.064;2024-02-04T07:53:51;82.80;;;44.70;;
68744;SDS011;73143;45.456;11.064;2024-02-04T07:56:27;79.90;;;45.40;;
68744;SDS011;73143;45.456;11.064;2024-02-04T07:59:04;79.00;;;44.40;;
68744;SDS011;73143;45.456;11.064;2024-02-04T08:01:42;83.30;;;45.30;;
68744;SDS011;73143;45.456;11.064;2024-02-04T08:04:19;72.40;;;43.80;;
68744;SDS011;73143;45.456;11.064;2024-02-04T08:06:58;74.70;;;43.60;;
68744;SDS011;73143;45.456;11.064;2024-02-04T08:09:36;78.00;;;42.30;;
68744;SDS011;73143;45.456;11.064;2024-02-04T08:12:13;77.10;;;43.60;;
68744;SDS011;73143;45.456;11.064;2024-02-04T08:14:49;68.40;;;40.60;;
68744;SDS011;73143;45.456;11.064;2024-02-04T08:17:26;79.00;;;43.10;;
68744;SDS011;73143;45.456;11.064;2024-02-04T08:20:04;79.30;;;44.20;;
68744;SDS011;73143;45.456;11.064;2024-02-04T08:22:44;77.80;;;47.50;;
68744;SDS011;73143;45.456;11.064;2024-02-04T08:25:22;82.80;;;49.80;;
68744;SDS011;73143;45.456;11.064;2024-02-04T08:28:00;86.40;;;48.40;;
68744;SDS011;73143;45.456;11.064;2024-02-04T08:30:37;84.30;;;50.00;;
68744;SDS011;73143;45.456;11.064;2024-02-04T08:33:13;82.20;;;50.60;;
68744;SDS011;73143;45.456;11.064;2024-02-04T08:35:52;84.00;;;51.30;;
68744;SDS011;73143;45.456;11.064;2024-02-04T08:38:32;79.70;;;49.80;;
68744;SDS011;73143;45.456;11.064;2024-02-04T08:41:09;88.10;;;50.60;;
68744;SDS011;73143;45.456;11.064;2024-02-04T08:43:46;85.00;;;50.20;;
68744;SDS011;73143;45.456;11.064;2024-02-04T08:46:23;80.10;;;47.70;;
68744;SDS011;73143;45.456;11.064;2024-02-04T08:49:00;89.60;;;47.40;;
68744;SDS011;73143;45.456;11.064;2024-02-04T08:51:36;76.20;;;44.00;;
68744;SDS011;73143;45.456;11.064;2024-02-04T08:54:13;73.20;;;42.20;;
68744;SDS011;73143;45.456;11.064;2024-02-04T08:56:50;77.60;;;45.90;;
68744;SDS011;73143;45.456;11.064;2024-02-04T08:59:26;81.80;;;47.10;;
68744;SDS011;73143;45.456;11.064;2024-02-04T09:02:06;88.00;;;48.30;;
68744;SDS011;73143;45.456;11.064;2024-02-04T09:04:43;93.80;;;52.50;;
68744;SDS011;73143;45.456;11.064;2024-02-04T09:07:20;95.50;;;54.90;;
68744;SDS011;73143;45.456;11.064;2024-02-04T09:09:56;83.70;;;49.50;;
68744;SDS011;73143;45.456;11.064;2024-02-04T09:12:32;83.90;;;50.70;;
68744;SDS011;73143;45.456;11.064;2024-02-04T09:15:12;83.80;;;49.40;;
68744;SDS011;73143;45.456;11.064;2024-02-04T09:17:48;87.80;;;51.60;;
68744;SDS011;73143;45.456;11.064;2024-02-04T09:20:25;89.30;;;52.90;;
68744;SDS011;73143;45.456;11.064;2024-02-04T09:23:02;92.50;;;52.20;;
68744;SDS011;73143;45.456;11.064;2024-02-04T09:25:39;84.80;;;50.80;;
68744;SDS011;73143;45.456;11.064;2024-02-04T09:28:16;85.90;;;52.20;;
68744;SDS011;73143;45.456;11.064;2024-02-04T09:30:53;89.50;;;54.10;;
68744;SDS011;73143;45.456;11.064;2024-02-04T09:33:30;88.50;;;53.40;;
68744;SDS011;73143;45.456;11.064;2024-02-04T09:36:09;93.80;;;53.90;;
68744;SDS011;73143;45.456;11.064;2024-02-04T09:38:47;93.20;;;54.70;;
68744;SDS011;73143;45.456;11.064;2024-02-04T09:41:24;89.70;;;53.50;;
68744;SDS011;73143;45.456;11.064;2024-02-04T09:44:02;93.10;;;55.70;;
68744;SDS011;73143;45.456;11.064;2024-02-04T09:46:40;90.00;;;53.10;;
68744;SDS011;73143;45.456;11.064;2024-02-04T09:49:18;89.40;;;53.70;;
68744;SDS011;73143;45.456;11.064;2024-02-04T09:51:57;91.50;;;53.80;;
68744;SDS011;73143;45.456;11.064;2024-02-04T09:54:45;87.00;;;52.00;;
68744;SDS011;73143;45.456;11.064;2024-02-04T09:57:22;90.90;;;54.40;;
68744;SDS011;73143;45.456;11.064;2024-02-04T09:59:59;88.60;;;54.40;;
68744;SDS011;73143;45.456;11.064;2024-02-04T10:02:41;85.60;;;52.10;;
68744;SDS011;73143;45.456;11.064;2024-02-04T10:05:19;81.90;;;49.70;;
68744;SDS011;73143;45.456;11.064;2024-02-04T10:07:56;92.70;;;56.00;;
68744;SDS011;73143;45.456;11.064;2024-02-04T10:10:33;89.70;;;55.10;;
68744;SDS011;73143;45.456;11.064;2024-02-04T10:13:13;100.30;;;61.40;;
68744;SDS011;73143;45.456;11.064;2024-02-04T10:15:50;101.90;;;60.70;;
68744;SDS011;73143;45.456;11.064;2024-02-04T10:18:27;105.90;;;61.30;;
68744;SDS011;73143;45.456;11.064;2024-02-04T10:21:13;97.00;;;56.70;;
68744;SDS011;73143;45.456;11.064;2024-02-04T10:23:52;110.10;;;63.70;;
68744;SDS011;73143;45.456;11.064;2024-02-04T10:26:32;101.30;;;60.70;;
68744;SDS011;73143;45.456;11.064;2024-02-04T10:29:10;110.60;;;65.80;;
68744;SDS011;73143;45.456;11.064;2024-02-04T10:31:47;118.60;;;71.40;;
68744;SDS011;73143;45.456;11.064;2024-02-04T10:34:27;110.80;;;65.50;;
68744;SDS011;73143;45.456;11.064;2024-02-04T10:37:05;102.10;;;59.70;;
68744;SDS011;73143;45.456;11.064;2024-02-04T10:39:42;111.00;;;62.20;;
68744;SDS011;73143;45.456;11.064;2024-02-04T10:42:19;102.20;;;61.00;;
68744;SDS011;73143;45.456;11.064;2024-02-04T10:45:00;92.00;;;56.00;;
68744;SDS011;73143;45.456;11.064;2024-02-04T10:47:42;97.50;;;57.10;;
68744;SDS011;73143;45.456;11.064;2024-02-04T10:50:26;99.40;;;58.80;;
68744;SDS011;73143;45.456;11.064;2024-02-04T10:53:06;94.90;;;56.40;;
68744;SDS011;73143;45.456;11.064;2024-02-04T10:55:48;90.00;;;54.80;;
68744;SDS011;73143;45.456;11.064;2024-02-04T10:58:31;87.70;;;51.50;;
68744;SDS011;73143;45.456;11.064;2024-02-04T11:01:09;88.90;;;51.50;;
68744;SDS011;73143;45.456;11.064;2024-02-04T11:03:46;90.40;;;54.00;;
68744;SDS011;73143;45.456;11.064;2024-02-04T11:06:26;90.40;;;53.20;;
68744;SDS011;73143;45.456;11.064;2024-02-04T11:09:05;92.90;;;56.30;;
68744;SDS011;73143;45.456;11.064;2024-02-04T11:11:42;92.00;;;54.00;;
68744;SDS011;73143;45.456;11.064;2024-02-04T11:14:21;97.70;;;57.60;;
68744;SDS011;73143;45.456;11.064;2024-02-04T11:17:32;101.40;;;58.80;;
68744;SDS011;73143;45.456;11.064;2024-02-04T11:20:28;97.10;;;57.90;;
68744;SDS011;73143;45.456;11.064;2024-02-04T11:23:39;97.80;;;59.20;;
68744;SDS011;73143;45.456;11.064;2024-02-04T11:26:24;89.70;;;53.70;;
68744;SDS011;73143;45.456;11.064;2024-02-04T11:29:02;105.10;;;62.80;;
68744;SDS011;73143;45.456;11.064;2024-02-04T11:31:41;98.90;;;61.40;;
68744;SDS011;73143;45.456;11.064;2024-02-04T11:34:18;100.90;;;60.50;;
68744;SDS011;73143;45.456;11.064;2024-02-04T11:36:57;103.50;;;63.00;;
68744;SDS011;73143;45.456;11.064;2024-02-04T11:39:34;106.90;;;64.30;;
68744;SDS011;73143;45.456;11.064;2024-02-04T11:42:18;103.40;;;63.20;;
68744;SDS011;73143;45.456;11.064;2024-02-04T11:45:10;105.50;;;64.70;;
68744;SDS011;73143;45.456;11.064;2024-02-04T11:48:02;102.50;;;63.90;;
68744;SDS011;73143;45.456;11.064;2024-02-04T11:50:42;95.30;;;60.20;;
68744;SDS011;73143;45.456;11.064;2024-02-04T11:53:26;102.00;;;61.80;;
68744;SDS011;73143;45.456;11.064;2024-02-04T11:56:06;101.70;;;63.50;;
68744;SDS011;73143;45.456;11.064;2024-02-04T11:58:44;98.80;;;60.90;;
68744;SDS011;73143;45.456;11.064;2024-02-04T12:01:24;101.10;;;60.30;;
68744;SDS011;73143;45.456;11.064;2024-02-04T12:04:11;101.40;;;61.20;;
68744;SDS011;73143;45.456;11.064;2024-02-04T12:06:49;107.50;;;63.60;;
68744;SDS011;73143;45.456;11.064;2024-02-04T12:09:26;106.70;;;65.30;;
68744;SDS011;73143;45.456;11.064;2024-02-04T12:12:04;105.00;;;64.80;;
68744;SDS011;73143;45.456;11.064;2024-02-04T12:14:47;104.60;;;63.40;;
68744;SDS011;73143;45.456;11.064;2024-02-04T12:17:26;101.50;;;64.00;;
68744;SDS011;73143;45.456;11.064;2024-02-04T12:20:07;110.30;;;66.90;;
68744;SDS011;73143;45.456;11.064;2024-02-04T12:22:45;106.30;;;65.00;;
68744;SDS011;73143;45.456;11.064;2024-02-04T12:25:22;103.70;;;63.60;;
68744;SDS011;73143;45.456;11.064;2024-02-04T12:28:03;106.50;;;64.30;;
68744;SDS011;73143;45.456;11.064;2024-02-04T12:30:40;103.40;;;63.00;;
68744;SDS011;73143;45.456;11.064;2024-02-04T12:33:31;108.70;;;63.10;;
68744;SDS011;73143;45.456;11.064;2024-02-04T12:36:11;103.30;;;63.10;;
68744;SDS011;73143;45.456;11.064;2024-02-04T12:38:55;101.40;;;61.40;;
68744;SDS011;73143;45.456;11.064;2024-02-04T12:41:35;100.20;;;63.00;;
68744;SDS011;73143;45.456;11.064;2024-02-04T12:44:11;100.40;;;63.30;;
68744;SDS011;73143;45.456;11.064;2024-02-04T12:46:54;103.20;;;62.50;;
68744;SDS011;73143;45.456;11.064;2024-02-04T12:49:31;105.30;;;63.80;;
68744;SDS011;73143;45.456;11.064;2024-02-04T12:52:09;100.30;;;61.10;;
68744;SDS011;73143;45.456;11.064;2024-02-04T12:54:45;95.80;;;58.40;;
68744;SDS011;73143;45.456;11.064;2024-02-04T12:57:27;104.30;;;61.40;;
68744;SDS011;73143;45.456;11.064;2024-02-04T13:00:13;100.20;;;58.10;;
68744;SDS011;73143;45.456;11.064;2024-02-04T13:02:58;103.60;;;61.30;;
68744;SDS011;73143;45.456;11.064;2024-02-04T13:05:35;104.90;;;64.20;;
68744;SDS011;73143;45.456;11.064;2024-02-04T13:08:12;99.30;;;60.40;;
68744;SDS011;73143;45.456;11.064;2024-02-04T13:10:56;96.70;;;58.20;;
68744;SDS011;73143;45.456;11.064;2024-02-04T13:13:33;100.50;;;63.10;;
68744;SDS011;73143;45.456;11.064;2024-02-04T13:16:10;100.70;;;59.50;;
68744;SDS011;73143;45.456;11.064;2024-02-04T13:18:53;98.40;;;60.20;;
68744;SDS011;73143;45.456;11.064;2024-02-04T13:21:30;97.10;;;57.90;;
68744;SDS011;73143;45.456;11.064;2024-02-04T13:24:07;96.30;;;61.00;;
68744;SDS011;73143;45.456;11.064;2024-02-04T13:26:44;93.40;;;57.30;;
68744;SDS011;73143;45.456;11.064;2024-02-04T13:29:21;102.90;;;62.90;;
68744;SDS011;73143;45.456;11.064;2024-02-04T13:31:59;105.30;;;62.30;;
68744;SDS011;73143;45.456;11.064;2024-02-04T13:34:36;103.30;;;65.00;;
68744;SDS011;73143;45.456;11.064;2024-02-04T13:37:12;100.50;;;61.90;;
68744;SDS011;73143;45.456;11.064;2024-02-04T13:39:50;103.40;;;64.10;;
68744;SDS011;73143;45.456;11.064;2024-02-04T13:42:27;104.60;;;65.00;;
68744;SDS011;73143;45.456;11.064;2024-02-04T13:45:06;107.80;;;65.50;;
68744;SDS011;73143;45.456;11.064;2024-02-04T13:47:45;111.90;;;68.90;;
68744;SDS011;73143;45.456;11.064;2024-02-04T13:50:25;114.40;;;71.00;;
68744;SDS011;73143;45.456;11.064;2024-02-04T13:53:02;106.60;;;68.30;;
68744;SDS011;73143;45.456;11.064;2024-02-04T13:55:38;116.30;;;73.80;;
68744;SDS011;73143;45.456;11.064;2024-02-04T13:58:15;112.50;;;70.60;;
68744;SDS011;73143;45.456;11.064;2024-02-04T14:00:54;113.10;;;71.60;;
68744;SDS011;73143;45.456;11.064;2024-02-04T14:03:32;122.10;;;75.70;;
68744;SDS011;73143;45.456;11.064;2024-02-04T14:06:09;117.60;;;73.30;;
68744;SDS011;73143;45.456;11.064;2024-02-04T14:08:46;120.90;;;74.90;;
68744;SDS011;73143;45.456;11.064;2024-02-04T14:11:23;119.60;;;73.10;;
68744;SDS011;73143;45.456;11.064;2024-02-04T14:13:59;124.00;;;76.50;;
68744;SDS011;73143;45.456;11.064;2024-02-04T14:16:35;122.30;;;76.40;;
68744;SDS011;73143;45.456;11.064;2024-02-04T14:19:12;116.90;;;74.50;;
68744;SDS011;73143;45.456;11.064;2024-02-04T14:21:49;121.90;;;76.10;;
68744;SDS011;73143;45.456;11.064;2024-02-04T14:24:27;118.50;;;74.20;;
68744;SDS011;73143;45.456;11.064;2024-02-04T14:27:05;123.10;;;76.70;;
68744;SDS011;73143;45.456;11.064;2024-02-04T14:29:41;124.70;;;78.10;;
68744;SDS011;73143;45.456;11.064;2024-02-04T14:32:17;124.80;;;78.40;;
68744;SDS011;73143;45.456;11.064;2024-02-04T14:34:53;121.90;;;75.60;;
68744;SDS011;73143;45.456;11.064;2024-02-04T14:37:35;124.10;;;74.60;;
68744;SDS011;73143;45.456;11.064;2024-02-04T14:40:16;121.90;;;74.80;;
68744;SDS011;73143;45.456;11.064;2024-02-04T14:42:54;126.80;;;79.70;;
68744;SDS011;73143;45.456;11.064;2024-02-04T14:45:30;119.50;;;75.00;;
68744;SDS011;73143;45.456;11.064;2024-02-04T14:48:20;117.70;;;72.60;;
68744;SDS011;73143;45.456;11.064;2024-02-04T14:50:57;126.60;;;79.10;;
68744;SDS011;73143;45.456;11.064;2024-02-04T14:53:35;127.50;;;78.60;;
68744;SDS011;73143;45.456;11.064;2024-02-04T14:56:12;125.60;;;76.90;;
68744;SDS011;73143;45.456;11.064;2024-02-04T14:58:49;133.10;;;80.60;;
68744;SDS011;73143;45.456;11.064;2024-02-04T15:01:28;124.00;;;78.40;;
68744;SDS011;73143;45.456;11.064;2024-02-04T15:04:05;125.70;;;76.90;;
68744;SDS011;73143;45.456;11.064;2024-02-04T15:06:43;119.30;;;74.20;;
68744;SDS011;73143;45.456;11.064;2024-02-04T15:09:21;124.90;;;77.20;;